Time;durP1;ratioP1;P1;durP2;ratioP2;P2;SDS_P1;SDS_P2;PMS_P1;PMS_P2;Temp;Humidity;BMP_temperature;BMP_pressure;BME280_temperature;BME280_humidity;BME280_pressure;Samples;Min_cycle;Max_cycle;Signal;HPM_P1;HPM_P2
2022/01/02 00:00:44;;;;;;;25.75;13.73;;;;;;;5.01;nan;101506.91;5047550;28;20497;-70
2022/01/02 00:03:35;;;;;;;26.67;13.93;;;;;;;4.98;nan;101516.84;5050808;28;20037;-70
2022/01/02 00:06:25;;;;;;;24.83;13.73;;;;;;;4.85;nan;101506.88;5046873;28;20083;-71
2022/01/02 00:09:19;;;;;;;23.95;12.20;;;;;;;4.86;nan;101516.31;5049320;28;20577;-71
2022/01/02 00:12:13;;;;;;;19.45;10.88;;;;;;;4.74;nan;101513.22;5045740;28;20037;-71
2022/01/02 00:15:01;;;;;;;19.02;11.70;;;;;;;;;;5050326;28;20116;-70
2022/01/02 00:17:49;;;;;;;19.73;12.13;;;;;;;;;;5051238;28;20047;-71
2022/01/02 00:20:45;;;;;;;17.98;10.75;;;;;;;;;;5051012;28;20042;-71
2022/01/02 00:23:33;;;;;;;19.67;11.63;;;;;;;;;;5046790;28;20040;-71
2022/01/02 00:26:20;;;;;;;16.57;10.73;;;;;;;;;;5048439;28;20120;-71
2022/01/02 00:29:06;;;;;;;18.02;10.77;;;;;;;;;;5045451;28;20254;-70
2022/01/02 00:31:53;;;;;;;17.20;10.25;;;;;;;;;;5037228;28;20115;-70
2022/01/02 00:34:40;;;;;;;18.50;10.43;;;;;;;;;;5050538;28;20122;-70
2022/01/02 00:37:26;;;;;;;18.88;11.45;;;;;;;;;;5050477;28;20048;-72
2022/01/02 00:40:13;;;;;;;22.90;12.63;;;;;;;;;;5039387;28;20047;-71
2022/01/02 00:43:02;;;;;;;18.67;11.43;;;;;;;;;;5040094;28;20383;-71
2022/01/02 00:45:49;;;;;;;27.00;14.80;;;;;;;;;;5056870;28;20494;-71
2022/01/02 00:48:38;;;;;;;22.63;13.07;;;;;;;;;;5054327;28;20044;-71
2022/01/02 00:51:33;;;;;;;21.43;12.13;;;;;;;;;;5037449;28;20029;-71
2022/01/02 00:54:22;;;;;;;19.95;11.80;;;;;;;4.54;nan;101562.22;5051821;28;20036;-71
2022/01/02 00:57:17;;;;;;;27.15;14.30;;;;;;;4.28;nan;101532.75;5048969;28;20033;-71
2022/01/02 01:00:06;;;;;;;26.17;15.10;;;;;;;4.23;nan;101528.00;5052065;28;20094;-71
2022/01/02 01:02:55;;;;;;;29.27;16.48;;;;;;;4.23;nan;101528.00;5047936;28;20437;-70
2022/01/02 01:05:45;;;;;;;25.48;15.07;;;;;;;4.14;nan;101521.94;5054273;28;20120;-71
2022/01/02 01:08:32;;;;;;;24.80;13.75;;;;;;;4.17;nan;101534.66;5047623;28;20768;-71
2022/01/02 01:11:18;;;;;;;24.23;13.25;;;;;;;4.09;nan;101525.97;5035832;28;20041;-71
2022/01/02 01:14:04;;;;;;;24.48;13.48;;;;;;;4.07;nan;101533.13;5039890;28;20427;-72
2022/01/02 01:16:51;;;;;;;23.77;13.32;;;;;;;4.01;nan;101531.97;5051395;28;20033;-72
2022/01/02 01:19:36;;;;;;;22.27;12.88;;;;;;;3.92;nan;101502.41;5053220;28;20063;-72
2022/01/02 01:22:22;;;;;;;31.90;14.13;;;;;;;3.91;nan;101516.44;5039277;28;20407;-71
2022/01/02 01:25:16;;;;;;;27.17;14.27;;;;;;;3.92;nan;101541.50;5053156;28;20561;-71
2022/01/02 01:28:02;;;;;;;26.58;14.43;;;;;;;3.88;nan;101539.34;5052921;28;20108;-71
2022/01/02 01:30:48;;;;;;;23.65;14.30;;;;;;;3.89;nan;101539.22;5050974;28;20114;-71
2022/01/02 01:33:34;;;;;;;25.63;14.15;;;;;;;3.81;nan;101532.16;5039946;28;20044;-70
2022/01/02 01:36:19;;;;;;;22.40;12.80;;;;;;;3.86;nan;101539.53;5039039;28;20032;-71
2022/01/02 01:39:05;;;;;;;21.52;12.65;;;;;;;3.66;nan;101518.03;5052744;28;20495;-71
2022/01/02 01:41:54;;;;;;;23.02;13.05;;;;;;;3.77;nan;101540.44;5052684;28;20517;-71
2022/01/02 01:47:34;;;;;;;26.92;11.82;;;;;;;3.75;nan;101551.00;5052052;28;20402;-71
2022/01/02 01:50:26;;;;;;;51.58;12.55;;;;;;;3.70;nan;101545.41;5051818;28;20033;-71
2022/01/02 01:53:12;;;;;;;21.33;11.88;;;;;;;3.56;nan;101541.56;5047426;28;20032;-71
2022/01/02 01:55:58;;;;;;;22.55;10.38;;;;;;;3.53;nan;101541.06;5051359;28;20041;-71
2022/01/02 01:58:44;;;;;;;19.27;10.25;;;;;;;3.55;nan;101549.53;5045060;28;20113;-70
2022/01/02 02:01:31;;;;;;;17.10;9.93;;;;;;;3.55;nan;101550.34;5045980;28;20041;-71
2022/01/02 02:04:17;;;;;;;29.60;11.45;;;;;;;3.45;nan;101535.75;5051446;28;20072;-71
2022/01/02 02:07:03;;;;;;;138.80;13.57;;;;;;;3.47;nan;101547.69;5050218;28;20404;-71
2022/01/02 02:10:07;;;;;;;22.45;11.52;;;;;;;3.40;nan;101538.84;5036618;28;20487;-71
2022/01/02 02:12:56;;;;;;;29.80;10.00;;;;;;;3.37;nan;101541.72;5049704;28;20052;-71
2022/01/02 02:15:43;;;;;;;18.55;9.25;;;;;;;3.35;nan;101544.50;5050785;28;20037;-71
2022/01/02 02:18:29;;;;;;;16.02;9.25;;;;;;;3.14;nan;101528.34;5051491;28;20518;-71
2022/01/02 02:21:15;;;;;;;19.98;10.23;;;;;;;3.20;nan;101538.16;5052020;28;20040;-71
2022/01/02 02:24:03;;;;;;;15.18;9.30;;;;;;;3.18;nan;101537.47;5038645;28;20061;-72
2022/01/02 02:26:48;;;;;;;15.77;9.23;;;;;;;3.19;nan;101550.34;5047553;28;20029;-69
2022/01/02 02:29:34;;;;;;;16.20;9.13;;;;;;;3.20;nan;101554.59;5052089;28;20119;-71
2022/01/02 02:32:20;;;;;;;23.75;9.73;;;;;;;3.17;nan;101548.88;5038453;28;20059;-71
2022/01/02 02:35:06;;;;;;;29.20;9.43;;;;;;;3.04;nan;101533.63;5051566;28;20033;-71
2022/01/02 02:37:51;;;;;;;36.38;9.77;;;;;;;2.98;nan;101544.59;5051967;28;20580;-71
2022/01/02 02:40:38;;;;;;;18.40;9.50;;;;;;;2.98;nan;101557.63;5045446;28;20048;-71
2022/01/02 02:43:36;;;;;;;19.50;9.95;;;;;;;2.95;nan;101558.72;5051604;28;20037;-71
2022/01/02 02:49:26;;;;;;;25.02;10.68;;;;;;;2.92;nan;101547.78;5052024;28;20487;-71
2022/01/02 02:52:26;;;;;;;38.88;10.52;;;;;;;2.86;nan;101536.19;5036676;28;20526;-71
2022/01/02 02:55:12;;;;;;;44.92;9.52;;;;;;;2.83;nan;101544.28;5051533;28;20045;-71
2022/01/02 02:58:08;;;;;;;42.83;8.48;;;;;;;2.67;nan;101520.69;5049268;28;20044;-71
2022/01/02 03:00:54;;;;;;;31.67;8.32;;;;;;;2.93;nan;101570.25;5048936;28;20557;-71
2022/01/02 03:03:41;;;;;;;41.20;9.02;;;;;;;2.59;nan;101544.84;5051704;28;20410;-71
2022/01/02 03:06:27;;;;;;;50.75;11.00;;;;;;;2.32;nan;101520.47;5034628;28;20098;-71
2022/01/02 03:09:13;;;;;;;41.10;12.65;;;;;;;2.36;nan;101533.16;5037653;28;20021;-71
2022/01/02 03:11:59;;;;;;;67.00;14.80;;;;;;;2.29;nan;101525.09;5052344;28;20043;-71
2022/01/02 03:14:45;;;;;;;101.28;16.27;;;;;;;2.34;nan;101539.31;5036511;28;20025;-71
2022/01/02 03:17:30;;;;;;;62.92;15.65;;;;;;;2.26;nan;101528.81;5052207;28;20125;-71
2022/01/02 03:20:16;;;;;;;98.32;16.95;;;;;;;2.24;nan;101538.53;5051060;28;20135;-71
2022/01/02 03:23:02;;;;;;;47.40;17.08;;;;;;;2.29;nan;101553.69;5050732;28;20040;-71
2022/01/02 03:25:48;;;;;;;38.83;17.60;;;;;;;1.97;nan;101499.53;5031558;28;20124;-71
2022/01/02 03:28:34;;;;;;;43.30;18.50;;;;;;;2.26;nan;101539.22;5049040;28;20045;-71
2022/01/02 03:31:19;;;;;;;48.28;19.05;;;;;;;2.02;nan;101518.09;5036079;28;20112;-71
2022/01/02 03:34:05;;;;;;;41.83;19.23;;;;;;;2.23;nan;101544.69;5050702;28;20044;-70
2022/01/02 03:36:51;;;;;;;45.85;19.67;;;;;;;2.17;nan;101527.06;5051086;28;20033;-71
2022/01/02 03:39:37;;;;;;;45.65;19.85;;;;;;;2.22;nan;101534.44;5036788;28;20116;-71
2022/01/02 03:42:23;;;;;;;37.38;19.05;;;;;;;2.18;nan;101533.91;5046818;28;20037;-70
2022/01/02 03:45:10;;;;;;;46.75;18.85;;;;;;;2.24;nan;101553.31;5051569;28;20517;-71
2022/01/02 03:47:55;;;;;;;47.63;19.17;;;;;;;2.23;nan;101559.47;5044854;28;20036;-71
2022/01/02 03:50:41;;;;;;;38.50;18.83;;;;;;;2.17;nan;101540.06;5032654;28;20071;-71
2022/01/02 03:53:27;;;;;;;38.03;18.92;;;;;;;2.25;nan;101545.38;5051373;28;20041;-70
2022/01/02 03:56:12;;;;;;;85.10;18.20;;;;;;;2.28;nan;101560.69;5044635;28;20044;-72
2022/01/02 03:58:58;;;;;;;98.68;18.98;;;;;;;2.16;nan;101541.03;5048942;28;20453;-71
2022/01/02 04:01:44;;;;;;;76.55;16.67;;;;;;;2.23;nan;101546.47;5050703;28;20526;-71
2022/01/02 04:04:30;;;;;;;59.60;16.80;;;;;;;2.29;nan;101553.69;5046081;28;20118;-71
2022/01/02 04:07:15;;;;;;;63.97;16.70;;;;;;;2.22;nan;101548.25;5047829;28;20029;-71
2022/01/02 04:10:05;;;;;;;72.30;13.85;;;;;;;2.20;nan;101547.56;5034604;28;20033;-70
2022/01/02 04:12:51;;;;;;;32.47;14.00;;;;;;;2.18;nan;101546.06;5048856;28;20380;-70
2022/01/02 04:15:37;;;;;;;46.58;13.60;;;;;;;2.07;nan;101526.28;5039879;28;20124;-71
2022/01/02 04:18:23;;;;;;;90.20;13.52;;;;;;;2.15;nan;101534.16;5048758;28;20039;-71
2022/01/02 04:21:09;;;;;;;35.35;12.68;;;;;;;2.25;nan;101547.97;5054136;28;20040;-72
2022/01/02 04:23:54;;;;;;;107.25;13.10;;;;;;;2.23;nan;101541.28;5040169;28;20452;-71
2022/01/02 04:26:40;;;;;;;63.83;12.65;;;;;;;2.24;nan;101540.31;5055439;28;20120;-71
2022/01/02 04:29:26;;;;;;;29.65;10.00;;;;;;;2.25;nan;101558.38;5055187;28;20059;-71
2022/01/02 04:32:13;;;;;;;81.38;10.68;;;;;;;2.27;nan;101551.22;5055631;28;20080;-71
2022/01/02 04:34:58;;;;;;;125.07;18.35;;;;;;;2.46;nan;101547.75;5041473;28;20401;-71
2022/01/02 04:37:44;;;;;;;70.65;14.48;;;;;;;2.76;nan;101548.44;5053691;28;20407;-69
2022/01/02 04:40:30;;;;;;;114.78;12.15;;;;;;;2.87;nan;101555.22;5054333;28;20045;-71
2022/01/02 04:43:16;;;;;;;83.10;11.10;;;;;;;2.71;nan;101545.47;5051204;28;20040;-71
2022/01/02 04:46:03;;;;;;;24.75;9.05;;;;;;;2.59;nan;101547.44;5041370;28;20152;-71
2022/01/02 04:48:49;;;;;;;34.70;8.88;;;;;;;2.55;nan;101549.47;5048827;28;20041;-71
2022/01/02 04:51:34;;;;;;;20.33;9.32;;;;;;;2.49;nan;101544.88;5022208;28;20086;-71
2022/01/02 04:54:21;;;;;;;22.27;8.73;;;;;;;2.41;nan;101542.16;5040530;28;20037;-71
2022/01/02 04:57:07;;;;;;;16.08;8.45;;;;;;;2.34;nan;101539.31;5052952;28;20513;-72
2022/01/02 04:59:53;;;;;;;14.70;8.57;;;;;;;2.19;nan;101519.94;5054147;28;20399;-72
2022/01/02 05:02:38;;;;;;;17.52;8.98;;;;;;;2.36;nan;101553.97;5050989;28;20040;-71
2022/01/02 05:05:24;;;;;;;14.65;9.35;;;;;;;2.30;nan;101545.78;5039066;28;20041;-70
2022/01/02 05:08:10;;;;;;;21.60;9.43;;;;;;;2.28;nan;101539.88;5053236;28;20051;-72
2022/01/02 05:10:56;;;;;;;18.55;9.13;;;;;;;2.29;nan;101536.31;5053687;28;20029;-71
2022/01/02 05:13:42;;;;;;;29.55;9.13;;;;;;;2.24;nan;101533.34;5039768;28;20048;-72
2022/01/02 05:16:27;;;;;;;70.47;10.30;;;;;;;2.24;nan;101538.53;5052558;28;20120;-71
2022/01/02 05:19:13;;;;;;;85.57;10.45;;;;;;;2.20;nan;101536.34;5048245;28;20087;-71
2022/01/02 05:21:59;;;;;;;22.13;9.68;;;;;;;2.25;nan;101552.34;5053801;28;20168;-72
2022/01/02 05:24:45;;;;;;;36.22;9.65;;;;;;;2.19;nan;101543.34;5045834;28;20031;-72
2022/01/02 05:27:31;;;;;;;34.65;9.82;;;;;;;2.13;nan;101536.94;5049197;28;20751;-72
2022/01/02 05:30:16;;;;;;;61.65;11.05;;;;;;;2.16;nan;101543.63;5052707;28;20036;-71
2022/01/02 05:33:02;;;;;;;44.35;10.73;;;;;;;2.05;nan;101533.38;5052756;28;20064;-72
2022/01/02 05:35:48;;;;;;;32.15;10.65;;;;;;;2.12;nan;101548.28;5053191;28;20039;-72
2022/01/02 05:38:34;;;;;;;20.02;10.98;;;;;;;2.13;nan;101541.28;5053179;28;20142;-72
2022/01/02 05:41:20;;;;;;;19.15;10.60;;;;;;;2.04;nan;101532.59;5052552;28;20045;-72
2022/01/02 05:44:06;;;;;;;40.78;12.52;;;;;;;2.12;nan;101539.66;5050720;28;20043;-71
2022/01/02 05:46:53;;;;;;;34.92;11.80;;;;;;;2.13;nan;101541.28;5055298;28;20123;-71
2022/01/02 05:49:39;;;;;;;31.00;10.20;;;;;;;1.87;nan;101504.75;5052972;28;20029;-72
2022/01/02 05:52:25;;;;;;;42.92;10.75;;;;;;;2.09;nan;101545.97;5053781;28;20040;-72
2022/01/02 05:55:11;;;;;;;56.45;10.63;;;;;;;2.06;nan;101542.81;5051955;28;20037;-71
2022/01/02 05:57:56;;;;;;;29.27;10.90;;;;;;;1.96;nan;101529.84;5034110;28;20123;-72
2022/01/02 06:00:42;;;;;;;17.88;9.20;;;;;;;1.96;nan;101537.63;5043960;28;20467;-72
2022/01/02 06:03:28;;;;;;;18.17;9.02;;;;;;;1.91;nan;101542.44;5043002;28;20495;-72
2022/01/02 06:06:13;;;;;;;24.08;9.70;;;;;;;1.91;nan;101553.63;5043531;28;20041;-71
2022/01/02 06:08:59;;;;;;;25.08;9.52;;;;;;;1.85;nan;101556.00;5025152;28;20033;-71
2022/01/02 06:11:45;;;;;;;36.45;9.63;;;;;;;1.79;nan;101549.56;5037653;28;20029;-72
2022/01/02 06:14:30;;;;;;;30.52;9.25;;;;;;;1.83;nan;101556.13;5041969;28;20037;-71
2022/01/02 06:17:16;;;;;;;23.67;10.18;;;;;;;1.81;nan;101555.44;5037481;28;20124;-71
2022/01/02 06:20:02;;;;;;;31.92;10.27;;;;;;;1.76;nan;101551.63;5026268;28;20036;-71
2022/01/02 06:22:50;;;;;;;28.13;10.43;;;;;;;1.82;nan;101570.09;5031851;28;20486;-71
2022/01/02 06:25:36;;;;;;;20.65;9.45;;;;;;;1.85;nan;101568.97;5044051;28;20040;-72
2022/01/02 06:28:21;;;;;;;25.67;9.93;;;;;;;1.81;nan;101565.84;5043346;28;20065;-71
2022/01/02 06:31:09;;;;;;;24.13;10.57;;;;;;;1.57;nan;101529.09;5036899;28;20091;-71
2022/01/02 06:33:54;;;;;;;43.85;10.68;;;;;;;1.77;nan;101564.47;5037674;28;20037;-71
2022/01/02 06:36:40;;;;;;;75.25;12.35;;;;;;;1.77;nan;101582.63;5037325;28;20521;-71
2022/01/02 06:39:26;;;;;;;62.22;11.55;;;;;;;1.75;nan;101578.53;5034601;28;20049;-70
2022/01/02 06:42:11;;;;;;;56.33;12.35;;;;;;;1.67;nan;101567.06;5043021;28;20529;-70
2022/01/02 06:44:57;;;;;;;73.93;13.70;;;;;;;1.74;nan;101577.72;5028020;28;20508;-70
2022/01/02 06:47:43;;;;;;;93.57;16.58;;;;;;;1.77;nan;101579.22;5037396;28;20559;-70
2022/01/02 06:50:09;;;;;;;119.03;16.77;;;;;;;1.77;nan;101589.63;5043808;28;20115;-72
2022/01/02 06:52:35;;;;;;;92.78;16.10;;;;;;;1.78;nan;101594.69;5041299;28;20086;-70
2022/01/02 06:55:19;;;;;;;77.47;15.90;;;;;;;1.76;nan;101588.00;5037236;28;20505;-70
2022/01/02 06:58:03;;;;;;;138.60;18.30;;;;;;;1.76;nan;101582.78;5044828;28;20056;-70
2022/01/02 07:00:50;;;;;;;94.85;18.63;;;;;;;1.72;nan;101589.22;5023803;28;20025;-71
2022/01/02 07:03:37;;;;;;;103.65;17.15;;;;;;;1.74;nan;101595.09;5033009;28;20053;-70
2022/01/02 07:06:23;;;;;;;147.40;22.30;;;;;;;1.81;nan;101599.59;5051337;28;20033;-71
2022/01/02 07:09:08;;;;;;;64.18;15.30;;;;;;;1.76;nan;101591.41;5036828;28;20040;-72
2022/01/02 07:11:54;;;;;;;46.00;15.13;;;;;;;1.79;nan;101593.72;5036208;28;20041;-72
2022/01/02 07:14:40;;;;;;;52.00;14.93;;;;;;;1.65;nan;101588.94;5036479;28;20037;-69
2022/01/02 07:17:25;;;;;;;42.38;14.65;;;;;;;1.61;nan;101587.59;5036199;28;20491;-71
2022/01/02 07:20:12;;;;;;;42.95;15.70;;;;;;;1.61;nan;101587.59;5040017;28;20094;-71
2022/01/02 07:22:57;;;;;;;34.42;15.15;;;;;;;1.68;nan;101596.47;5048300;28;20144;-71
2022/01/02 07:25:23;;;;;;;35.30;14.82;;;;;;;1.67;nan;101587.03;5050825;28;20041;-71
2022/01/02 07:27:48;;;;;;;30.95;14.35;;;;;;;1.54;nan;101573.50;5020954;28;20060;-72
2022/01/02 07:30:14;;;;;;;32.45;13.60;;;;;;;1.51;nan;101581.56;5040512;28;20467;-72
2022/01/02 07:32:39;;;;;;;30.17;13.07;;;;;;;1.57;nan;101583.63;5051215;28;20037;-70
2022/01/02 07:35:06;;;;;;;31.10;11.38;;;;;;;1.53;nan;101584.84;5051764;28;20360;-71
2022/01/02 07:37:33;;;;;;;32.63;11.32;;;;;;;1.52;nan;101591.81;5052012;28;20120;-70
2022/01/02 07:39:58;;;;;;;35.38;11.20;;;;;;;1.59;nan;101584.31;5051842;28;20036;-71
2022/01/02 07:42:24;;;;;;;37.45;12.05;;;;;;;1.65;nan;101588.94;5034156;28;20441;-72
2022/01/02 07:44:49;;;;;;;36.33;12.68;;;;;;;1.67;nan;101581.84;5033936;28;20120;-71
2022/01/02 07:47:15;;;;;;;40.35;13.45;;;;;;;1.76;nan;101596.59;5058286;28;20498;-71
2022/01/02 07:49:40;;;;;;;47.90;14.15;;;;;;;1.62;nan;101564.06;5051278;28;20075;-71
2022/01/02 07:52:05;;;;;;;63.92;18.38;;;;;;;1.81;nan;101589.19;5049857;28;20517;-71
2022/01/02 07:54:31;;;;;;;39.78;17.23;;;;;;;1.79;nan;101585.91;5045818;28;20029;-72
2022/01/02 07:56:56;;;;;;;46.75;17.45;;;;;;;1.79;nan;101591.13;5024553;28;20406;-71
2022/01/02 07:59:22;;;;;;;52.15;17.00;;;;;;;1.82;nan;101584.81;5030052;28;20485;-71
2022/01/02 08:01:47;;;;;;;330.33;42.00;;;;;;;1.95;nan;101593.16;5028896;28;20039;-70
2022/01/02 08:04:31;;;;;;;46.53;17.13;;;;;;;2.05;nan;101591.34;5047632;28;20267;-71
2022/01/02 08:06:56;;;;;;;46.30;19.23;;;;;;;2.08;nan;101585.91;5031637;28;20479;-71
2022/01/02 08:09:22;;;;;;;40.97;19.40;;;;;;;2.30;nan;101604.72;5049750;28;20036;-71
2022/01/02 08:11:47;;;;;;;44.30;19.90;;;;;;;2.41;nan;101604.53;5033210;28;20076;-72
2022/01/02 08:14:15;;;;;;;54.67;19.90;;;;;;;2.43;nan;101594.00;5051557;28;20037;-72
2022/01/02 08:16:40;;;;;;;51.70;19.27;;;;;;;2.45;nan;101599.91;5033439;28;20051;-72
2022/01/02 08:19:06;;;;;;;46.00;18.02;;;;;;;2.48;nan;101602.22;5050670;28;20064;-73
2022/01/02 08:21:32;;;;;;;500.90;44.83;;;;;;;2.45;nan;101605.09;5027737;28;20604;-73
2022/01/02 08:23:57;;;;;;;128.57;22.42;;;;;;;2.45;nan;101597.28;5045111;28;20036;-73
2022/01/02 08:26:23;;;;;;;48.40;16.75;;;;;;;2.43;nan;101592.22;5051109;28;20037;-73
2022/01/02 08:31:24;;;;;;;260.42;34.00;;;;;;;2.43;nan;101570.63;1457180;22;20141;-71
2022/01/02 08:33:49;;;;;;;441.73;43.72;;;;;;;2.57;nan;101590.97;5013592;28;20132;-73
2022/01/02 08:36:15;;;;;;;63.97;17.40;;;;;;;2.67;nan;101598.72;4999459;28;20425;-73
2022/01/02 08:38:40;;;;;;;51.60;17.58;;;;;;;2.66;nan;101592.69;5583743;22;20057;-74
2022/01/02 08:41:06;;;;;;;59.97;17.73;;;;;;;2.73;nan;101587.72;5047240;28;20076;-75
2022/01/02 08:43:31;;;;;;;707.90;85.25;;;;;;;2.73;nan;101587.72;5050243;28;20029;-74
2022/01/02 08:45:56;;;;;;;56.90;16.02;;;;;;;2.70;nan;101581.03;5051011;28;20456;-76
2022/01/02 08:48:22;;;;;;;58.28;16.52;;;;;;;2.82;nan;101584.25;5050326;28;20051;-75
2022/01/02 08:50:48;;;;;;;58.15;16.95;;;;;;;2.83;nan;101572.09;5050807;28;20151;-72
2022/01/02 08:53:13;;;;;;;78.32;18.85;;;;;;;2.88;nan;101573.28;5050787;28;20673;-74
2022/01/02 08:55:39;;;;;;;77.55;19.95;;;;;;;2.98;nan;101583.63;5039000;28;20379;-73
2022/01/02 08:58:04;;;;;;;90.05;20.75;;;;;;;3.04;nan;101582.22;5050499;28;20033;-74
2022/01/02 09:00:32;;;;;;;123.60;25.70;;;;;;;3.06;nan;101578.50;5034453;28;20040;-74
2022/01/02 09:02:57;;;;;;;513.33;69.30;;;;;;;3.10;nan;101571.25;5035262;28;20375;-74
2022/01/02 09:05:25;;;;;;;448.67;61.65;;;;;;;2.99;nan;101554.03;5053095;28;20040;-75
2022/01/02 09:07:50;;;;;;;104.85;23.52;;;;;;;3.09;nan;101557.41;5036434;28;20473;-77
2022/01/02 09:10:17;;;;;;;1388.75;145.55;;;;;;;3.22;nan;101588.28;5047177;28;20052;-77
2022/01/02 09:12:43;;;;;;;506.15;53.03;;;;;;;3.24;nan;101562.13;5054013;28;20032;-78
2022/01/02 09:15:09;;;;;;;124.88;29.90;;;;;;;3.26;nan;101555.00;5054100;28;20044;-77
2022/01/02 09:17:35;;;;;;;99.43;26.38;;;;;;;3.46;nan;101563.47;5054777;28;20115;-77
2022/01/02 09:20:00;;;;;;;80.20;28.05;;;;;;;3.51;nan;101548.19;5054293;28;20021;-76
2022/01/02 09:22:25;;;;;;;68.13;26.55;;;;;;;3.57;nan;101552.81;5036267;28;20039;-77
2022/01/02 09:24:53;;;;;;;82.32;27.83;;;;;;;3.70;nan;101570.66;5054397;28;20493;-76
2022/01/02 09:27:18;;;;;;;86.55;27.45;;;;;;;3.68;nan;101549.97;5055105;28;20481;-78
2022/01/02 09:29:43;;;;;;;1153.07;169.43;;;;;;;3.70;nan;101539.41;5054567;28;20103;-78
2022/01/02 09:32:09;;;;;;;73.63;28.13;;;;;;;3.68;nan;101523.09;5036015;28;20071;-74
2022/01/02 09:34:34;;;;;;;220.93;47.75;;;;;;;3.82;nan;101535.56;5054217;28;20398;-74
2022/01/02 09:37:00;;;;;;;70.68;27.27;;;;;;;3.83;nan;101525.00;5035993;28;20478;-74
2022/01/02 09:39:25;;;;;;;469.25;81.03;;;;;;;3.90;nan;101530.41;5053730;28;20045;-77
2022/01/02 09:41:51;;;;;;;77.18;30.25;;;;;;;3.99;nan;101526.88;5054404;28;20048;-75
2022/01/02 09:44:16;;;;;;;80.15;28.88;;;;;;;3.98;nan;101522.66;5035944;28;20490;-75
2022/01/02 09:46:42;;;;;;;76.40;28.67;;;;;;;4.01;nan;101526.75;5053909;28;20422;-74
2022/01/02 09:49:09;;;;;;;176.88;38.03;;;;;;;4.08;nan;101532.97;5054142;28;20123;-75
2022/01/02 09:51:34;;;;;;;80.13;30.95;;;;;;;4.15;nan;101536.59;5053966;28;20127;-75
2022/01/02 09:54:00;;;;;;;81.65;29.77;;;;;;;4.14;nan;101521.94;5035755;28;20465;-75
2022/01/02 09:56:25;;;;;;;83.00;30.05;;;;;;;4.28;nan;101517.91;5049552;28;20627;-74
2022/01/02 09:58:51;;;;;;;80.45;29.77;;;;;;;4.35;nan;101510.28;5048974;28;20483;-74
2022/01/02 10:01:22;;;;;;;78.55;31.05;;;;;;;4.47;nan;101519.47;5044307;28;20041;-75
2022/01/02 10:03:53;;;;;;;82.00;31.60;;;;;;;4.53;nan;101518.03;5047690;28;20033;-74
2022/01/02 10:06:19;;;;;;;100.68;34.08;;;;;;;4.40;nan;101490.59;5053706;28;20080;-75
2022/01/02 10:08:46;;;;;;;97.65;34.45;;;;;;;4.58;nan;101508.75;5052142;28;20064;-73
2022/01/02 10:13:45;;;;;;;115.45;35.60;;;;;;;4.86;nan;101516.31;5042237;28;20478;-72
2022/01/02 10:16:28;;;;;;;104.93;34.25;;;;;;;4.96;nan;101508.38;5043691;28;20037;-74
2022/01/02 10:18:55;;;;;;;114.15;37.03;;;;;;;5.03;nan;101509.38;5051730;28;20037;-74
2022/01/02 10:21:29;;;;;;;125.28;47.55;;;;;;;5.02;nan;101481.63;5052784;28;20486;-75
2022/01/02 10:24:14;;;;;;;112.55;38.03;;;;;;;5.21;nan;101490.94;5053563;28;20124;-75
2022/01/02 10:26:41;;;;;;;127.05;41.00;;;;;;;5.29;nan;101491.78;5049721;28;20041;-76
2022/01/02 10:29:14;;;;;;;111.65;38.50;;;;;;;5.31;nan;101481.16;5050215;28;20172;-76
2022/01/02 10:31:40;;;;;;;114.57;39.05;;;;;;;5.54;nan;101486.53;5040342;28;20037;-76
2022/01/02 10:34:07;;;;;;;113.75;39.05;;;;;;;5.68;nan;101477.22;5039508;28;20041;-75
2022/01/02 10:36:40;;;;;;;115.55;39.90;;;;;;;5.85;nan;101472.78;5034861;28;20025;-75
2022/01/02 10:39:14;;;;;;;109.43;40.28;;;;;;;5.97;nan;101472.25;5040995;28;20103;-75
2022/01/02 10:41:45;;;;;;;103.88;38.05;;;;;;;6.18;nan;101474.31;5040698;28;20037;-75
2022/01/02 10:44:22;;;;;;;91.53;36.85;;;;;;;6.36;nan;101463.59;5020614;28;20041;-76
2022/01/02 10:47:13;;;;;;;81.20;33.47;;;;;;;6.50;nan;101449.00;5026505;28;20032;-74
2022/01/02 10:50:17;;;;;;;73.07;30.80;;;;;;;6.79;nan;101455.38;5053125;28;20121;-75
2022/01/02 10:52:47;;;;;;;68.40;29.35;;;;;;;6.85;nan;101438.97;4968406;28;20035;-74
2022/01/02 10:55:16;;;;;;;68.75;30.60;;;;;;;7.05;nan;101447.16;4970696;28;20118;-74
2022/01/02 10:57:42;;;;;;;65.70;28.97;;;;;;;7.19;nan;101445.59;4950120;28;20039;-74
2022/01/02 11:00:10;;;;;;;58.45;26.92;;;;;;;7.37;nan;101443.44;4963611;28;20285;-75
2022/01/02 11:02:37;;;;;;;56.88;26.13;;;;;;;7.49;nan;101446.44;4971043;28;20540;-74
2022/01/02 11:05:07;;;;;;;56.50;25.05;;;;;;;7.63;nan;101439.59;4971570;28;20416;-75
2022/01/02 11:07:43;;;;;;;49.97;22.65;;;;;;;7.74;nan;101427.88;4955253;28;20034;-74
2022/01/02 11:10:11;;;;;;;40.45;20.30;;;;;;;7.86;nan;101416.75;4971221;28;20137;-74
2022/01/02 11:12:39;;;;;;;33.97;18.65;;;;;;;8.05;nan;101414.56;4974766;28;20035;-74
2022/01/02 11:15:09;;;;;;;34.10;18.73;;;;;;;8.18;nan;101417.34;4971144;28;20047;-73
2022/01/02 11:17:36;;;;;;;32.60;17.35;;;;;;;8.28;nan;101415.25;4970251;28;20098;-73
2022/01/02 11:20:09;;;;;;;28.73;15.93;;;;;;;8.41;nan;101400.69;4971521;28;20118;-73
2022/01/02 11:22:49;;;;;;;26.52;14.07;;;;;;;8.55;nan;101402.44;4964397;28;20053;-75
2022/01/02 11:25:38;;;;;;;23.90;14.40;;;;;;;8.67;nan;101410.63;5048621;28;20124;-74
2022/01/02 11:28:05;;;;;;;;;;;;;;;8.74;nan;101395.75;5050953;28;20040;-74
2022/01/02 11:30:31;;;;;;;23.88;13.38;;;;;;;8.81;nan;101406.31;5032684;28;19939;-75
2022/01/02 11:33:13;;;;;;;21.55;13.80;;;;;;;8.83;nan;101394.59;5020486;28;20490;-74
2022/01/02 11:35:44;;;;;;;22.08;13.40;;;;;;;8.88;nan;101396.66;5040521;28;20042;-75
2022/01/02 11:38:10;;;;;;;23.60;13.55;;;;;;;8.85;nan;101376.03;5038314;28;20085;-75
2022/01/02 11:40:51;;;;;;;22.10;13.60;;;;;;;8.95;nan;101392.28;5030042;28;20067;-76
2022/01/02 11:43:35;;;;;;;22.00;13.18;;;;;;;9.06;nan;101388.34;5038192;28;20049;-74
2022/01/02 11:46:43;;;;;;;22.27;13.20;;;;;;;9.14;nan;101388.19;5031399;28;20162;-74
2022/01/02 11:49:13;;;;;;;22.55;13.10;;;;;;;9.19;nan;101382.38;4999115;28;20091;-76
2022/01/02 11:51:47;;;;;;;24.60;14.02;;;;;;;9.27;nan;101387.50;5041914;28;20082;-75
2022/01/02 11:54:28;;;;;;;23.02;13.10;;;;;;;9.31;nan;101388.72;5052067;28;20363;-73
2022/01/02 11:56:55;;;;;;;19.75;12.68;;;;;;;9.35;nan;101382.06;5027214;28;20030;-75
2022/01/02 11:59:38;;;;;;;23.38;13.25;;;;;;;9.41;nan;101373.44;5038451;28;20072;-75
2022/01/02 12:02:07;;;;;;;20.88;13.48;;;;;;;9.42;nan;101368.97;5041443;28;20075;-75
2022/01/02 12:05:18;;;;;;;21.02;12.68;;;;;;;9.41;nan;101362.09;5043402;28;20033;-75
2022/01/02 12:07:50;;;;;;;19.98;12.35;;;;;;;9.42;nan;101361.91;5037446;28;20390;-75
2022/01/02 12:12:56;;;;;;;20.98;13.00;;;;;;;9.57;nan;101362.59;5041188;28;20475;-76
2022/01/02 12:15:41;;;;;;;29.17;14.48;;;;;;;;;;5039362;28;20663;-76
2022/01/02 12:18:07;;;;;;;22.83;13.02;;;;;;;;;;5039851;28;20044;-76
2022/01/02 12:20:50;;;;;;;21.98;12.98;;;;;;;;;;5040609;28;20033;-76
2022/01/02 12:23:31;;;;;;;24.98;13.07;;;;;;;;;;5038597;28;20560;-76
2022/01/02 12:26:03;;;;;;;23.67;12.60;;;;;;;;;;5039263;28;20056;-75
2022/01/02 12:28:36;;;;;;;19.20;11.95;;;;;;;;;;5028543;28;20116;-74
2022/01/02 12:31:01;;;;;;;21.10;12.70;;;;;;;;;;5028570;28;20025;-76
2022/01/02 12:33:28;;;;;;;22.05;13.75;;;;;;;;;;5029844;28;20040;-76
2022/01/02 12:35:53;;;;;;;21.30;11.93;;;;;;;;;;5043663;28;20032;-76
2022/01/02 12:38:18;;;;;;;19.27;12.03;;;;;;;;;;5044638;28;20041;-75
2022/01/02 12:40:44;;;;;;;20.75;11.90;;;;;;;10.56;nan;101292.84;5047014;28;20298;-74
2022/01/02 12:43:11;;;;;;;18.27;11.55;;;;;;;10.68;nan;101297.50;5042651;28;20041;-76
2022/01/02 12:45:37;;;;;;;21.60;12.40;;;;;;;10.55;nan;101256.19;5041813;28;20057;-76
2022/01/02 12:48:03;;;;;;;20.23;11.95;;;;;;;10.83;nan;101284.94;5046639;28;20033;-75
2022/01/02 12:50:31;;;;;;;21.25;12.40;;;;;;;10.97;nan;101293.66;5045219;28;20025;-76
2022/01/02 12:52:57;;;;;;;20.63;12.00;;;;;;;11.02;nan;101297.28;5021308;28;20029;-75